Time;durP1;ratioP1;P1;durP2;ratioP2;P2;SDS_P1;SDS_P2;PMS_P1;PMS_P2;Temp;Humidity;BMP_temperature;BMP_pressure;BME280_temperature;BME280_humidity;BME280_pressure;Samples;Min_cycle;Max_cycle;Signal;HPM_P1;HPM_P2
2022/07/24 00:01:24;;;;;;;15.63;14.43;;;;;;;;;;5014698;28;20443;-76
2022/07/24 00:03:51;;;;;;;16.30;15.10;;;;;;;;;;5015005;28;20517;-75
2022/07/24 00:06:18;;;;;;;15.13;14.03;;;;;;;;;;5015437;28;20489;-75
2022/07/24 00:08:45;;;;;;;15.40;14.20;;;;;;;;;;5015449;28;20512;-75
2022/07/24 00:11:13;;;;;;;15.00;13.90;;;;;;;;;;5015076;28;20443;-75
2022/07/24 00:13:40;;;;;;;15.50;14.20;;;;;;;;;;5015029;28;20474;-76
2022/07/24 00:16:07;;;;;;;15.20;14.00;;;;;;;;;;5014862;28;20564;-76
2022/07/24 00:18:35;;;;;;;16.30;14.80;;;;;;;;;;5014947;28;20444;-75
2022/07/24 00:21:02;;;;;;;16.17;14.83;;;;;;;;;;5015348;28;20513;-74
2022/07/24 00:23:29;;;;;;;15.00;13.83;;;;;;;;;;5014951;28;20475;-75
2022/07/24 00:25:56;;;;;;;15.77;14.67;;;;;;;;;;5014965;28;20439;-74
2022/07/24 00:28:25;;;;;;;14.97;13.87;;;;;;;;;;5015213;28;20497;-75
2022/07/24 00:30:52;;;;;;;15.30;14.00;;;;;;;;;;5015963;28;20439;-74
2022/07/24 00:33:19;;;;;;;15.33;14.13;;;;;;;;;;5016547;28;20471;-75
2022/07/24 00:35:46;;;;;;;15.53;14.33;;;;;;;;;;5019344;28;20545;-75
2022/07/24 00:38:13;;;;;;;16.63;15.23;;;;;;;;;;5016228;28;20510;-75
2022/07/24 00:40:40;;;;;;;15.83;14.63;;;;;;;;;;5014618;28;20458;-75
2022/07/24 00:43:07;;;;;;;15.37;14.17;;;;;;;;;;5014134;28;20479;-75
2022/07/24 00:45:36;;;;;;;17.10;15.30;;;;;;;;;;5014521;28;20535;-75
2022/07/24 00:48:03;;;;;;;15.63;14.40;;;;;;;;;;5014331;28;20447;-74
2022/07/24 00:50:30;;;;;;;15.57;14.47;;;;;;;;;;5014177;28;20493;-75
2022/07/24 00:52:57;;;;;;;16.43;15.13;;;;;;;;;;5013548;28;20509;-75
2022/07/24 00:55:24;;;;;;;15.40;14.20;;;;;;;;;;5014589;28;20440;-75
2022/07/24 00:57:51;;;;;;;17.03;15.73;;;;;;;;;;5014313;28;20497;-75
2022/07/24 01:00:19;;;;;;;15.60;14.40;;;;;;;;;;5013420;28;20997;-75
2022/07/24 01:02:49;;;;;;;15.60;14.50;;;;;;;;;;5012492;28;20517;-74
2022/07/24 01:05:16;;;;;;;15.90;14.70;;;;;;;;;;5012804;28;20439;-75
2022/07/24 01:07:43;;;;;;;16.17;14.93;;;;;;;;;;5012584;28;20498;-74
2022/07/24 01:10:10;;;;;;;16.27;14.97;;;;;;;;;;5012597;28;20501;-74
2022/07/24 01:12:38;;;;;;;15.53;14.37;;;;;;;;;;5012380;28;20439;-75
2022/07/24 01:15:07;;;;;;;15.73;14.50;;;;;;;;;;5012502;28;20458;-75
2022/07/24 01:17:34;;;;;;;16.93;15.40;;;;;;;;;;5012951;28;20487;-74
2022/07/24 01:20:03;;;;;;;17.10;15.30;;;;;;;;;;5012524;28;20931;-74
2022/07/24 01:22:32;;;;;;;15.63;14.43;;;;;;;;;;5012728;28;20802;-74
2022/07/24 01:24:59;;;;;;;14.90;13.80;;;;;;;;;;5012796;28;20493;-75
2022/07/24 01:27:26;;;;;;;16.13;14.73;;;;;;;;;;5012737;28;20447;-75
2022/07/24 01:29:54;;;;;;;14.83;13.73;;;;;;;;;;5012417;28;20447;-76
2022/07/24 01:32:21;;;;;;;16.53;15.03;;;;;;;;;;5012201;28;21232;-74
2022/07/24 01:34:48;;;;;;;16.63;15.20;;;;;;;;;;5012102;28;20533;-75
2022/07/24 01:37:15;;;;;;;16.37;15.10;;;;;;;;;;5012715;28;20486;-75
2022/07/24 01:39:43;;;;;;;16.20;15.03;;;;;;;;;;5012396;28;20537;-75
2022/07/24 01:42:10;;;;;;;16.03;14.73;;;;;;;;;;5012295;28;20447;-74
2022/07/24 01:44:37;;;;;;;16.67;15.47;;;;;;;;;;5011741;28;20467;-74
2022/07/24 01:47:04;;;;;;;15.43;14.30;;;;;;;;;;5012165;28;21218;-75
2022/07/24 01:49:31;;;;;;;15.93;14.63;;;;;;;;;;5012931;28;20614;-76
2022/07/24 01:51:58;;;;;;;16.10;14.73;;;;;;;;;;5012791;28;20578;-74
2022/07/24 01:54:25;;;;;;;16.00;14.60;;;;;;;;;;5020281;28;20443;-75
2022/07/24 01:56:53;;;;;;;15.33;14.13;;;;;;;;;;5035948;28;20510;-74
2022/07/24 01:59:20;;;;;;;15.93;14.63;;;;;;;;;;5028920;28;20505;-74
2022/07/24 02:01:47;;;;;;;17.27;15.87;;;;;;;;;;5028592;28;20839;-74
2022/07/24 02:04:14;;;;;;;17.20;15.80;;;;;;;;;;5026660;28;20459;-73
2022/07/24 02:06:41;;;;;;;17.57;16.17;;;;;;;;;;5033462;28;20432;-76
2022/07/24 02:09:08;;;;;;;17.20;15.87;;;;;;;;;;5031826;28;20424;-75
2022/07/24 02:11:35;;;;;;;17.37;16.03;;;;;;;;;;5015127;28;20444;-76
2022/07/24 02:14:04;;;;;;;18.23;16.70;;;;;;;;;;5005192;28;21024;-75
2022/07/24 02:16:31;;;;;;;17.30;15.90;;;;;;;;;;4993916;28;20484;-76
2022/07/24 02:18:58;;;;;;;19.13;17.60;;;;;;;;;;4994449;28;20467;-75
2022/07/24 02:21:25;;;;;;;17.97;16.47;;;;;;;;;;4994398;28;20831;-75
2022/07/24 02:23:52;;;;;;;19.80;18.07;;;;;;;;;;4993048;28;20468;-75
2022/07/24 02:26:19;;;;;;;18.87;17.27;;;;;;;;;;4997960;28;20465;-74
2022/07/24 02:28:46;;;;;;;18.20;16.60;;;;;;;;;;4999293;28;20564;-74
2022/07/24 02:31:14;;;;;;;17.57;16.20;;;;;;;;;;4994598;28;20470;-74
2022/07/24 02:33:41;;;;;;;18.80;17.10;;;;;;;;;;4993129;28;20495;-75
2022/07/24 02:36:09;;;;;;;18.87;17.37;;;;;;;;;;4992199;28;20452;-75
2022/07/24 02:38:36;;;;;;;18.50;17.10;;;;;;;;;;4991941;28;20502;-75
2022/07/24 02:41:03;;;;;;;18.47;16.97;;;;;;;;;;4991502;28;20467;-75
2022/07/24 02:43:30;;;;;;;17.67;16.37;;;;;;;;;;4991168;28;20464;-75
2022/07/24 02:45:57;;;;;;;19.17;17.57;;;;;;;;;;4991917;28;20808;-74
2022/07/24 02:48:26;;;;;;;18.07;16.67;;;;;;;;;;4992171;28;20452;-74
2022/07/24 02:50:53;;;;;;;19.00;17.60;;;;;;;;;;4994163;28;20452;-74
2022/07/24 02:53:20;;;;;;;18.90;17.33;;;;;;;;;;4993072;28;20476;-74
2022/07/24 02:55:47;;;;;;;17.93;16.63;;;;;;;;;;4991320;28;20522;-74
2022/07/24 02:58:14;;;;;;;19.20;17.37;;;;;;;;;;4991252;28;20496;-75
2022/07/24 03:00:41;;;;;;;19.20;17.70;;;;;;;;;;4991322;28;20490;-75
2022/07/24 03:03:08;;;;;;;19.10;17.63;;;;;;;;;;4991205;28;20468;-75
2022/07/24 03:05:37;;;;;;;20.47;18.97;;;;;;;;;;4991256;28;20440;-75
2022/07/24 03:08:04;;;;;;;19.53;18.10;;;;;;;;;;4991312;28;20496;-74
2022/07/24 03:10:34;;;;;;;19.83;18.20;;;;;;;;;;4991405;28;20444;-75
2022/07/24 03:13:01;;;;;;;19.87;18.27;;;;;;;;;;4991332;28;20465;-75
2022/07/24 03:15:28;;;;;;;18.33;16.77;;;;;;;;;;4991016;28;20455;-74
2022/07/24 03:17:56;;;;;;;18.80;17.30;;;;;;;;;;4991247;28;20484;-75
2022/07/24 03:20:24;;;;;;;18.67;17.17;;;;;;;;;;4991373;28;20447;-76
2022/07/24 03:22:52;;;;;;;20.07;18.47;;;;;;;;;;4990582;28;20514;-75
2022/07/24 03:25:20;;;;;;;18.37;16.97;;;;;;;;;;4990970;28;20506;-74
2022/07/24 03:27:47;;;;;;;19.13;17.40;;;;;;;;;;4991080;28;20452;-75
2022/07/24 03:30:15;;;;;;;19.13;17.53;;;;;;;;;;4991184;28;20460;-75
2022/07/24 03:32:42;;;;;;;19.83;18.20;;;;;;;;;;4990767;28;20447;-75
2022/07/24 03:35:09;;;;;;;18.47;16.97;;;;;;;;;;4994054;28;20445;-74
2022/07/24 03:37:36;;;;;;;19.53;17.83;;;;;;;;;;4995599;28;20488;-75
2022/07/24 03:40:06;;;;;;;19.50;18.00;;;;;;;;;;4995042;28;20482;-75
2022/07/24 03:42:33;;;;;;;18.07;16.67;;;;;;;;;;4994488;28;20471;-75
2022/07/24 03:45:00;;;;;;;19.47;18.00;;;;;;;;;;4994854;28;20448;-75
2022/07/24 03:47:27;;;;;;;20.40;18.27;;;;;;;;;;4994825;28;20448;-75
2022/07/24 03:49:54;;;;;;;19.10;17.50;;;;;;;;;;4994927;28;20598;-75
2022/07/24 03:52:21;;;;;;;18.63;17.23;;;;;;;;;;4994376;28;20452;-75
2022/07/24 03:54:48;;;;;;;18.40;16.90;;;;;;;;;;4994297;28;20514;-75
2022/07/24 03:57:16;;;;;;;18.87;17.23;;;;;;;;;;4994498;28;20534;-75
2022/07/24 03:59:43;;;;;;;20.27;18.43;;;;;;;;;;4994610;28;20448;-75
2022/07/24 04:02:10;;;;;;;18.93;17.53;;;;;;;;;;4994699;28;20448;-75
2022/07/24 04:04:37;;;;;;;20.17;18.40;;;;;;;;;;4993914;28;20526;-75
2022/07/24 04:07:04;;;;;;;19.87;18.37;;;;;;;;;;4994404;28;20955;-74
2022/07/24 04:09:31;;;;;;;20.37;18.70;;;;;;;;;;5006330;28;20451;-75
2022/07/24 04:11:58;;;;;;;19.67;18.13;;;;;;;;;;5013912;28;20466;-75
2022/07/24 04:14:28;;;;;;;20.40;18.90;;;;;;;;;;5013362;28;20470;-75
2022/07/24 04:16:55;;;;;;;19.50;17.80;;;;;;;;;;5013625;28;20528;-74
2022/07/24 04:19:22;;;;;;;18.93;17.27;;;;;;;;;;5013520;28;20447;-74
2022/07/24 04:21:49;;;;;;;18.43;17.03;;;;;;;;;;5013737;28;20455;-75
2022/07/24 04:24:16;;;;;;;19.20;17.70;;;;;;;;;;5013582;28;20467;-75
2022/07/24 04:26:43;;;;;;;17.70;16.20;;;;;;;;;;5013936;28;20503;-75
2022/07/24 04:29:10;;;;;;;20.90;19.20;;;;;;;;;;5013582;28;20470;-75
2022/07/24 04:31:39;;;;;;;19.70;18.10;;;;;;;;;;5013565;28;20458;-75
2022/07/24 04:34:06;;;;;;;20.00;18.23;;;;;;;;;;5013557;28;20468;-75
2022/07/24 04:36:33;;;;;;;19.93;18.30;;;;;;;;;;5013488;28;20505;-75
2022/07/24 04:39:00;;;;;;;20.07;18.47;;;;;;;;;;5013376;28;20970;-74
2022/07/24 04:41:27;;;;;;;18.53;16.90;;;;;;;;;;5019296;28;20443;-74
2022/07/24 04:43:54;;;;;;;19.03;17.53;;;;;;;;;;5026135;28;20535;-74
2022/07/24 04:46:21;;;;;;;19.67;18.07;;;;;;;;;;5013535;28;20489;-74
2022/07/24 04:48:49;;;;;;;17.83;16.53;;;;;;;;;;5013293;28;20447;-75
2022/07/24 04:51:16;;;;;;;18.43;16.93;;;;;;;;;;5013300;28;20502;-75
2022/07/24 04:53:43;;;;;;;18.23;16.90;;;;;;;;;;5012650;28;21028;-74
2022/07/24 04:56:10;;;;;;;18.47;16.83;;;;;;;;;;5012931;28;20447;-75
2022/07/24 04:58:37;;;;;;;18.87;17.27;;;;;;;;;;5012951;28;20475;-75
2022/07/24 05:01:04;;;;;;;19.87;18.27;;;;;;;;;;5013015;28;20447;-75
2022/07/24 05:03:31;;;;;;;20.57;18.77;;;;;;;;;;5012816;28;20467;-75
2022/07/24 05:06:00;;;;;;;20.63;18.93;;;;;;;;;;5013289;28;20440;-75
2022/07/24 05:08:27;;;;;;;18.73;17.17;;;;;;;;;;5012984;28;20447;-76
2022/07/24 05:10:54;;;;;;;20.00;18.37;;;;;;;;;;5013040;28;20448;-74
2022/07/24 05:13:21;;;;;;;19.60;17.97;;;;;;;;;;5012889;28;20471;-75
2022/07/24 05:15:48;;;;;;;19.53;18.00;;;;;;;;;;5013450;28;20505;-75
2022/07/24 05:18:15;;;;;;;18.70;17.20;;;;;;;;;;5013322;28;20490;-75
2022/07/24 05:20:42;;;;;;;19.53;17.93;;;;;;;;;;5016940;28;20466;-75
2022/07/24 05:23:10;;;;;;;19.03;17.60;;;;;;;;;;5034961;28;20443;-75
2022/07/24 05:25:37;;;;;;;18.40;16.90;;;;;;;;;;5037168;28;20440;-75
2022/07/24 05:28:04;;;;;;;18.80;17.33;;;;;;;;;;5015742;28;20447;-75
2022/07/24 05:30:32;;;;;;;16.80;15.40;;;;;;;;;;5012830;28;20444;-74
2022/07/24 05:32:59;;;;;;;17.33;16.03;;;;;;;;;;5012340;28;20521;-75
2022/07/24 05:35:26;;;;;;;17.07;15.73;;;;;;;;;;5012742;28;20501;-75
2022/07/24 05:37:53;;;;;;;17.73;16.33;;;;;;;;;;5014113;28;20482;-75
2022/07/24 05:40:21;;;;;;;17.80;16.13;;;;;;;;;;5014420;28;20447;-75
2022/07/24 05:42:48;;;;;;;16.83;15.50;;;;;;;;;;5012840;28;20490;-74
2022/07/24 05:45:15;;;;;;;16.47;15.17;;;;;;;;;;5012145;28;20919;-74
2022/07/24 05:47:42;;;;;;;17.70;16.20;;;;;;;;;;5012083;28;20443;-75
2022/07/24 05:50:10;;;;;;;17.33;15.80;;;;;;;;;;5010916;28;20447;-75
2022/07/24 05:52:37;;;;;;;16.87;15.67;;;;;;;;;;5011330;28;20455;-74
2022/07/24 05:55:05;;;;;;;18.93;17.30;;;;;;;;;;5011977;28;20444;-75
2022/07/24 05:57:33;;;;;;;16.37;15.07;;;;;;;;;;5011025;28;20487;-75
2022/07/24 06:00:00;;;;;;;16.13;15.00;;;;;;;;;;5013016;28;20439;-74
2022/07/24 06:02:27;;;;;;;17.33;16.00;;;;;;;;;;5013384;28;20448;-74
2022/07/24 06:04:55;;;;;;;17.67;16.20;;;;;;;;;;5013013;28;20475;-75
2022/07/24 06:07:22;;;;;;;16.80;15.40;;;;;;;;;;5012154;28;20443;-75
2022/07/24 06:09:51;;;;;;;16.30;15.00;;;;;;;;;;5003056;28;20444;-74
2022/07/24 06:12:18;;;;;;;17.30;15.93;;;;;;;;;;5004936;28;20447;-74
2022/07/24 06:14:47;;;;;;;18.13;16.83;;;;;;;;;;5007514;28;20517;-74
2022/07/24 06:17:14;;;;;;;15.60;14.40;;;;;;;;;;5005149;28;20505;-74
2022/07/24 06:19:41;;;;;;;16.13;14.83;;;;;;;;;;5012360;28;20447;-74
2022/07/24 06:22:08;;;;;;;16.83;15.63;;;;;;;;;;5012043;28;20447;-74
2022/07/24 06:24:35;;;;;;;15.67;14.47;;;;;;;;;;5012017;28;20995;-74
2022/07/24 06:27:03;;;;;;;15.20;13.90;;;;;;;;;;5012262;28;20447;-74
2022/07/24 06:29:30;;;;;;;15.13;13.83;;;;;;;;;;5009972;28;20529;-73
2022/07/24 06:31:58;;;;;;;14.93;13.63;;;;;;;;;;5011723;28;20513;-74
2022/07/24 06:34:25;;;;;;;13.83;12.83;;;;;;;;;;5011641;28;20455;-73
2022/07/24 06:36:52;;;;;;;15.53;14.23;;;;;;;;;;5012066;28;20501;-74
2022/07/24 06:39:19;;;;;;;15.07;13.80;;;;;;;;;;5007567;28;20806;-74
2022/07/24 06:41:46;;;;;;;16.13;14.73;;;;;;;;;;5011902;28;20448;-73
2022/07/24 06:44:13;;;;;;;15.13;13.93;;;;;;;;;;5011222;28;21027;-74
2022/07/24 06:46:40;;;;;;;22.47;20.57;;;;;;;;;;5012477;28;20440;-75
2022/07/24 06:49:09;;;;;;;23.50;21.70;;;;;;;;;;5007758;28;20440;-74
2022/07/24 06:51:36;;;;;;;15.00;13.77;;;;;;;;;;5010710;28;21025;-74
2022/07/24 06:54:03;;;;;;;15.13;14.03;;;;;;;;;;5010002;28;20517;-74
2022/07/24 06:56:30;;;;;;;16.33;14.93;;;;;;;;;;5011906;28;20443;-75
2022/07/24 06:58:58;;;;;;;15.67;14.47;;;;;;;;;;5012230;28;20506;-75
2022/07/24 07:01:25;;;;;;;14.50;13.33;;;;;;;;;;5012136;28;20451;-75
2022/07/24 07:03:52;;;;;;;15.57;14.47;;;;;;;;;;5011164;28;20892;-75
2022/07/24 07:06:21;;;;;;;16.37;15.00;;;;;;;;;;5011791;28;20460;-75
2022/07/24 07:08:48;;;;;;;16.83;15.23;;;;;;;;;;5011233;28;20474;-74
2022/07/24 07:11:15;;;;;;;16.73;15.43;;;;;;;;;;5011855;28;20450;-75
2022/07/24 07:13:42;;;;;;;15.30;13.90;;;;;;;;;;5011551;28;20474;-75
2022/07/24 07:16:09;;;;;;;15.27;14.07;;;;;;;;;;5011675;28;20455;-75
2022/07/24 07:18:36;;;;;;;14.77;13.67;;;;;;;;;;5011639;28;20533;-74
2022/07/24 07:21:04;;;;;;;15.00;13.80;;;;;;;;;;5011375;28;20451;-74
2022/07/24 07:23:32;;;;;;;15.27;14.17;;;;;;;;;;5011466;28;20519;-76
2022/07/24 07:25:59;;;;;;;17.70;16.00;;;;;;;;;;5011741;28;20458;-76
2022/07/24 07:28:26;;;;;;;14.57;13.37;;;;;;;;;;5011533;28;20447;-75
2022/07/24 07:30:53;;;;;;;16.50;15.30;;;;;;;;;;5011275;28;20856;-75
2022/07/24 07:33:20;;;;;;;15.83;14.63;;;;;;;;;;5011228;28;20463;-75
2022/07/24 07:35:47;;;;;;;15.30;14.00;;;;;;;;;;5011422;28;20443;-76
2022/07/24 07:38:14;;;;;;;15.60;14.30;;;;;;;;;;5011446;28;20483;-75
2022/07/24 07:40:43;;;;;;;14.43;13.40;;;;;;;;;;5011440;28;20881;-74
2022/07/24 07:43:10;;;;;;;14.70;13.50;;;;;;;;;;5011241;28;20525;-76
2022/07/24 07:45:37;;;;;;;14.30;13.30;;;;;;;;;;5011128;28;20786;-76
2022/07/24 07:48:04;;;;;;;14.00;12.93;;;;;;;;;;5011462;28;20444;-75
2022/07/24 07:50:31;;;;;;;16.20;14.73;;;;;;;;;;5011638;28;20446;-75
2022/07/24 07:52:59;;;;;;;14.60;13.50;;;;;;;;;;5006723;28;20479;-76
2022/07/24 07:55:26;;;;;;;11.57;10.80;;;;;;;;;;5011743;28;20466;-75
2022/07/24 07:57:55;;;;;;;13.40;12.00;;;;;;;;;;5011048;28;20526;-74
2022/07/24 08:00:22;;;;;;;12.67;11.67;;;;;;;;;;5011690;28;20439;-75
2022/07/24 08:02:49;;;;;;;13.40;12.27;;;;;;;;;;5011313;28;20451;-75
2022/07/24 08:05:16;;;;;;;12.40;11.30;;;;;;;;;;5011309;28;20497;-75
2022/07/24 08:07:43;;;;;;;12.73;11.50;;;;;;;;;;5011436;28;20443;-75
2022/07/24 08:10:10;;;;;;;12.67;11.77;;;;;;;;;;5011131;28;20455;-75
2022/07/24 08:12:37;;;;;;;12.23;11.23;;;;;;;;;;5010684;28;21200;-74
2022/07/24 08:15:07;;;;;;;11.80;10.90;;;;;;;;;;5011095;28;20455;-75
2022/07/24 08:17:34;;;;;;;11.67;10.87;;;;;;;;;;5011005;28;20525;-75
2022/07/24 08:20:01;;;;;;;13.47;12.17;;;;;;;;;;5010612;28;20834;-75
2022/07/24 08:22:28;;;;;;;11.30;10.40;;;;;;;;;;5013784;28;20443;-75
2022/07/24 08:24:55;;;;;;;11.83;10.83;;;;;;;;;;5014226;28;20470;-75
2022/07/24 08:27:22;;;;;;;12.40;11.30;;;;;;;;;;5014588;28;20864;-75
2022/07/24 08:29:49;;;;;;;11.20;10.40;;;;;;;;;;5014577;28;20439;-75
2022/07/24 08:32:17;;;;;;;11.43;10.60;;;;;;;;;;5014637;28;20490;-74
2022/07/24 08:34:44;;;;;;;10.40;9.67;;;;;;;;;;5014119;28;20467;-75
2022/07/24 08:37:11;;;;;;;10.40;9.60;;;;;;;;;;5014433;28;20444;-75
2022/07/24 08:39:38;;;;;;;10.70;9.87;;;;;;;;;;5013947;28;20483;-75
2022/07/24 08:42:08;;;;;;;10.20;9.40;;;;;;;;;;5014561;28;20517;-75
2022/07/24 08:44:35;;;;;;;11.10;10.30;;;;;;;;;;5011959;28;20873;-75
2022/07/24 08:47:02;;;;;;;10.37;9.57;;;;;;;;;;5013704;28;20931;-76
2022/07/24 08:49:32;;;;;;;10.93;10.03;;;;;;;;;;5016831;28;20444;-75
2022/07/24 08:52:01;;;;;;;10.40;9.70;;;;;;;;;;5016871;28;20486;-75
2022/07/24 08:54:28;;;;;;;11.13;10.23;;;;;;;;;;5013923;28;20471;-75
2022/07/24 08:56:55;;;;;;;10.60;9.77;;;;;;;;;;5014229;28;20490;-75
2022/07/24 08:59:23;;;;;;;10.93;10.20;;;;;;;;;;5013901;28;20475;-75
2022/07/24 09:01:51;;;;;;;11.20;10.10;;;;;;;;;;5014563;28;20482;-74
2022/07/24 09:04:38;;;;;;;11.23;10.43;;;;;;;;;;5014533;28;20506;-75
2022/07/24 09:07:07;;;;;;;10.30;9.40;;;;;;;;;;5016025;28;20443;-75
2022/07/24 09:09:34;;;;;;;10.33;9.40;;;;;;;;;;5008730;28;20444;-74
2022/07/24 09:12:04;;;;;;;9.57;8.77;;;;;;;;;;4995507;28;20455;-74
2022/07/24 09:14:32;;;;;;;11.50;10.60;;;;;;;;;;4996215;28;20826;-75
2022/07/24 09:17:03;;;;;;;10.67;9.80;;;;;;;;;;4995176;28;20444;-74
2022/07/24 09:19:30;;;;;;;11.20;10.30;;;;;;;;;;4994128;28;20538;-74
2022/07/24 09:21:58;;;;;;;10.00;9.00;;;;;;;;;;4994003;28;20448;-74
2022/07/24 09:24:25;;;;;;;10.87;10.10;;;;;;;;;;4993865;28;20464;-75
2022/07/24 09:26:53;;;;;;;9.90;9.30;;;;;;;;;;4994057;28;20444;-73
2022/07/24 09:29:21;;;;;;;10.10;9.20;;;;;;;;;;4993851;28;20994;-74
2022/07/24 09:31:52;;;;;;;10.37;9.67;;;;;;;;;;4993259;28;20448;-76
2022/07/24 09:34:19;;;;;;;9.90;9.13;;;;;;;;;;4993460;28;20464;-75
2022/07/24 09:36:56;;;;;;;8.93;8.33;;;;;;;;;;4993885;28;20449;-74
2022/07/24 09:39:24;;;;;;;10.00;9.30;;;;;;;;;;4993588;28;20515;-74
2022/07/24 09:41:53;;;;;;;10.47;9.63;;;;;;;;;;4993346;28;20463;-75
2022/07/24 09:44:20;;;;;;;9.80;9.00;;;;;;;;;;4992969;28;20475;-75
2022/07/24 09:46:48;;;;;;;10.47;9.70;;;;;;;;;;4993585;28;20452;-75
2022/07/24 09:49:20;;;;;;;10.60;9.90;;;;;;;;;;4993615;28;20448;-75
2022/07/24 09:51:49;;;;;;;9.40;8.80;;;;;;;;;;4993541;28;20436;-75
2022/07/24 09:54:29;;;;;;;10.47;9.77;;;;;;;;;;4992984;28;20523;-75
2022/07/24 09:57:15;;;;;;;9.83;9.07;;;;;;;;;;4993127;28;20916;-75
2022/07/24 09:59:44;;;;;;;9.80;9.00;;;;;;;;;;4992942;28;20491;-75
2022/07/24 10:02:14;;;;;;;10.27;9.40;;;;;;;;;;4993097;28;20479;-76
2022/07/24 10:04:42;;;;;;;10.50;9.70;;;;;;;;;;4992546;28;20511;-76
2022/07/24 10:07:10;;;;;;;9.37;8.77;;;;;;;;;;4992848;28;20885;-75
2022/07/24 10:09:41;;;;;;;9.90;9.20;;;;;;;;;;4999980;28;20459;-73
2022/07/24 10:12:12;;;;;;;9.27;8.53;;;;;;;;;;5012488;28;20447;-74
2022/07/24 10:14:40;;;;;;;9.87;9.00;;;;;;;;;;5011990;28;20479;-74
2022/07/24 10:17:08;;;;;;;10.97;10.13;;;;;;;;;;5012184;28;20440;-74
2022/07/24 10:19:39;;;;;;;9.87;9.10;;;;;;;;;;5012426;28;20479;-74
2022/07/24 10:22:10;;;;;;;10.20;9.40;;;;;;;;;;5027542;28;20497;-73
2022/07/24 10:24:48;;;;;;;9.63;8.93;;;;;;;;;;5030502;28;20482;-74
2022/07/24 10:27:23;;;;;;;10.40;9.57;;;;;;;;;;5017963;28;20505;-75
2022/07/24 10:29:53;;;;;;;10.23;9.53;;;;;;;;;;5013090;28;20534;-75
2022/07/24 10:32:20;;;;;;;9.30;8.70;;;;;;;;;;5021773;28;20439;-75
2022/07/24 10:34:48;;;;;;;10.10;9.40;;;;;;;;;;5010419;28;20463;-77
2022/07/24 10:37:21;;;;;;;10.27;9.47;;;;;;;;;;5010767;28;20442;-74
2022/07/24 10:39:52;;;;;;;10.17;9.07;;;;;;;;;;5010558;28;20486;-75
2022/07/24 10:42:20;;;;;;;10.10;9.30;;;;;;;;;;5011149;28;20440;-75
2022/07/24 10:45:08;;;;;;;9.80;9.10;;;;;;;;;;5009843;28;21006;-75
2022/07/24 10:47:37;;;;;;;10.67;9.90;;;;;;;;;;5011626;28;20514;-75
2022/07/24 10:50:04;;;;;;;10.60;9.77;;;;;;;;;;5014053;28;20489;-74
2022/07/24 10:52:32;;;;;;;9.90;9.20;;;;;;;;;;5013989;28;20804;-75
2022/07/24 10:55:29;;;;;;;9.73;9.03;;;;;;;;;;5013367;28;20571;-75
2022/07/24 10:57:57;;;;;;;9.60;8.90;;;;;;;;;;4971642;28;20453;-74
2022/07/24 11:00:26;;;;;;;8.90;8.30;;;;;;;;;;5003698;28;20539;-74
2022/07/24 11:02:58;;;;;;;8.90;8.40;;;;;;;;;;5011950;28;20886;-74
2022/07/24 11:05:26;;;;;;;9.00;8.40;;;;;;;;;;5011608;28;20450;-76
2022/07/24 11:08:24;;;;;;;9.33;8.70;;;;;;;;;;5012377;28;20439;-75
2022/07/24 11:10:52;;;;;;;10.30;9.60;;;;;;;;;;4970786;28;20441;-76
2022/07/24 11:13:41;;;;;;;8.40;7.80;;;;;;;;;;5002601;28;20572;-76
2022/07/24 11:16:24;;;;;;;8.60;8.00;;;;;;;;;;5012011;28;20439;-76
2022/07/24 11:19:10;;;;;;;8.97;8.37;;;;;;;;;;5012193;28;20436;-77
2022/07/24 11:21:40;;;;;;;8.57;8.00;;;;;;;;;;5011920;28;20451;-76
2022/07/24 11:24:19;;;;;;;9.40;8.67;;;;;;;;;;5011418;28;20506;-76
2022/07/24 11:26:49;;;;;;;9.50;8.70;;;;;;;;;;5012072;28;20443;-75
2022/07/24 11:29:17;;;;;;;9.27;8.57;;;;;;;;;;5011768;28;20435;-77
2022/07/24 11:31:44;;;;;;;8.57;7.97;;;;;;;;;;5020139;28;20494;-77
2022/07/24 11:34:12;;;;;;;8.40;7.90;;;;;;;;;;5029186;28;20575;-75
2022/07/24 11:36:43;;;;;;;8.53;7.83;;;;;;;;;;5027781;28;20474;-75
2022/07/24 11:39:10;;;;;;;9.00;8.30;;;;;;;;;;5027840;28;20479;-76
2022/07/24 11:41:45;;;;;;;8.20;7.60;;;;;;;;;;5014736;28;20501;-75
2022/07/24 11:44:12;;;;;;;8.90;8.30;;;;;;;;;;5011364;28;20743;-76
2022/07/24 11:46:40;;;;;;;9.30;8.70;;;;;;;;;;5012209;28;20443;-75
2022/07/24 11:49:07;;;;;;;8.87;8.30;;;;;;;;;;5011203;28;20458;-75
2022/07/24 11:51:43;;;;;;;8.47;7.83;;;;;;;;;;5011563;28;20505;-76
2022/07/24 11:54:10;;;;;;;9.03;8.33;;;;;;;;;;5011055;28;20463;-75
2022/07/24 11:56:37;;;;;;;8.00;7.40;;;;;;;;;;5015178;28;20438;-76
2022/07/24 11:59:04;;;;;;;8.53;7.93;;;;;;;;;;5014938;28;20443;-75
2022/07/24 12:01:31;;;;;;;9.20;8.70;;;;;;;;;;5015158;28;20470;-75
2022/07/24 12:03:59;;;;;;;8.83;8.23;;;;;;;;;;5016665;28;20983;-76
2022/07/24 12:06:27;;;;;;;8.50;8.00;;;;;;;;;;5016216;28;20494;-74
2022/07/24 12:08:59;;;;;;;9.33;8.40;;;;;;;;;;5013613;28;20443;-74
2022/07/24 12:11:26;;;;;;;8.37;7.57;;;;;;;;;;4995407;28;20475;-75
2022/07/24 12:13:53;;;;;;;9.17;8.47;;;;;;;;;;4995219;28;20479;-74
2022/07/24 12:16:26;;;;;;;8.60;7.97;;;;;;;;;;4995710;28;20494;-75
2022/07/24 12:18:53;;;;;;;8.43;7.90;;;;;;;;;;4995275;28;20518;-76
2022/07/24 12:21:20;;;;;;;8.60;8.00;;;;;;;;;;4995048;28;20476;-74
2022/07/24 12:23:47;;;;;;;8.20;7.70;;;;;;;;;;4995870;28;20538;-75
2022/07/24 12:26:16;;;;;;;8.57;7.87;;;;;;;;;;4996250;28;20452;-75
2022/07/24 12:28:43;;;;;;;8.33;7.83;;;;;;;;;;4995861;28;20928;-74
2022/07/24 12:31:10;;;;;;;9.07;8.47;;;;;;;;;;4995141;28;20447;-75
2022/07/24 12:33:37;;;;;;;8.60;8.10;;;;;;;;;;4994678;28;20468;-75
2022/07/24 12:36:08;;;;;;;8.83;8.20;;;;;;;;;;4995183;28;20502;-76
2022/07/24 12:38:36;;;;;;;9.17;8.57;;;;;;;;;;4995359;28;21016;-75
2022/07/24 12:41:07;;;;;;;8.73;7.97;;;;;;;;;;4995438;28;20479;-75
2022/07/24 12:43:47;;;;;;;8.93;8.30;;;;;;;;;;4995350;28;20555;-75
2022/07/24 12:46:14;;;;;;;9.40;8.60;;;;;;;;;;4994934;28;20483;-75
2022/07/24 12:48:41;;;;;;;8.67;7.87;;;;;;;;;;4995057;28;20451;-76
2022/07/24 12:51:10;;;;;;;9.07;8.37;;;;;;;;;;4995298;28;20448;-75
2022/07/24 12:53:38;;;;;;;8.07;7.50;;;;;;;;;;4994791;28;21075;-74
2022/07/24 12:56:06;;;;;;;8.77;8.07;;;;;;;;;;4996190;28;20444;-77
2022/07/24 12:58:48;;;;;;;8.80;8.20;;;;;;;;;;4995666;28;20471;-77
2022/07/24 13:01:16;;;;;;;8.77;8.20;;;;;;;;;;4994623;28;20511;-75
2022/07/24 13:03:43;;;;;;;8.97;8.37;;;;;;;;;;4994157;28;20476;-76
2022/07/24 13:06:11;;;;;;;9.67;8.97;;;;;;;;;;4993092;28;20467;-75
2022/07/24 13:08:38;;;;;;;9.17;8.57;;;;;;;;;;4992881;28;20456;-76
2022/07/24 13:11:05;;;;;;;8.93;8.23;;;;;;;;;;5011839;28;20443;-76
2022/07/24 13:13:32;;;;;;;9.50;8.80;;;;;;;;;;5012390;28;20482;-75
2022/07/24 13:15:59;;;;;;;8.60;8.10;;;;;;;;;;5013637;28;20505;-75
2022/07/24 13:18:27;;;;;;;8.10;7.60;;;;;;;;;;5012451;28;20947;-75
2022/07/24 13:20:54;;;;;;;9.20;8.40;;;;;;;;;;5011750;28;20545;-75
2022/07/24 13:23:21;;;;;;;8.00;7.50;;;;;;;;;;5012106;28;20534;-75
2022/07/24 13:25:48;;;;;;;8.37;7.87;;;;;;;;;;5012264;28;20447;-76
2022/07/24 13:28:15;;;;;;;7.93;7.40;;;;;;;;;;5012850;28;20490;-74
2022/07/24 13:30:42;;;;;;;9.17;8.57;;;;;;;;;;5012173;28;20497;-74
2022/07/24 13:33:09;;;;;;;8.90;8.20;;;;;;;;;;5011730;28;20471;-74
2022/07/24 13:35:37;;;;;;;8.60;7.90;;;;;;;;;;5012262;28;20451;-76
2022/07/24 13:38:04;;;;;;;8.70;8.03;;;;;;;;;;5011663;28;20935;-76
2022/07/24 13:40:31;;;;;;;7.80;7.30;;;;;;;;;;5011884;28;20475;-75
2022/07/24 13:42:58;;;;;;;8.40;7.70;;;;;;;;;;5011984;28;20471;-75
2022/07/24 13:45:26;;;;;;;8.37;7.77;;;;;;;;;;5012039;28;20455;-75
2022/07/24 13:47:53;;;;;;;8.70;7.70;;;;;;;;;;5011824;28;20451;-75
2022/07/24 13:50:20;;;;;;;8.10;7.57;;;;;;;;;;5012649;28;20968;-75
2022/07/24 13:52:48;;;;;;;8.53;7.93;;;;;;;;;;5013981;28;20444;-75
2022/07/24 13:55:15;;;;;;;8.57;7.97;;;;;;;;;;5015914;28;20444;-75
2022/07/24 13:57:42;;;;;;;8.10;7.60;;;;;;;;;;5015562;28;20443;-74
2022/07/24 14:00:10;;;;;;;8.47;7.97;;;;;;;;;;5014506;28;21057;-76
2022/07/24 14:02:37;;;;;;;8.80;8.20;;;;;;;;;;5011170;28;20443;-75
2022/07/24 14:05:04;;;;;;;8.30;7.80;;;;;;;;;;5011836;28;20665;-75
2022/07/24 14:07:31;;;;;;;9.00;8.37;;;;;;;;;;5011483;28;20451;-75
2022/07/24 14:09:59;;;;;;;9.10;8.40;;;;;;;;;;5001540;28;20467;-76
2022/07/24 14:12:28;;;;;;;8.83;8.13;;;;;;;;;;4991708;28;20456;-76
2022/07/24 14:14:55;;;;;;;7.17;6.77;;;;;;;;;;4991338;28;20516;-73
2022/07/24 14:17:22;;;;;;;8.10;7.60;;;;;;;;;;4991453;28;20453;-75
2022/07/24 14:19:49;;;;;;;8.00;7.50;;;;;;;;;;4990485;28;20444;-74
2022/07/24 14:22:16;;;;;;;8.37;7.57;;;;;;;;;;4991598;28;20453;-76
2022/07/24 14:24:43;;;;;;;8.20;7.50;;;;;;;;;;4991045;28;20886;-75
2022/07/24 14:27:11;;;;;;;7.87;7.43;;;;;;;;;;4991243;28;20878;-75
2022/07/24 14:29:38;;;;;;;7.93;7.43;;;;;;;;;;4991167;28;20448;-76
2022/07/24 14:32:05;;;;;;;8.40;7.90;;;;;;;;;;4991170;28;20440;-76